Time;durP1;ratioP1;P1;durP2;ratioP2;P2;SDS_P1;SDS_P2;PMS_P1;PMS_P2;Temp;Humidity;BMP_temperature;BMP_pressure;BME280_temperature;BME280_humidity;BME280_pressure;Samples;Min_cycle;Max_cycle;Signal;HPM_P1;HPM_P2
2022/11/21 00:01:48;;;;;;;0.00;0.00;;;;;;;8.90;71.26;99620.41;7358264;19;20019;-59
2022/11/21 00:04:14;;;;;;;0.10;0.10;;;;;;;8.91;70.77;99609.06;7344385;19;20018;-57
2022/11/21 00:06:39;;;;;;;0.00;0.00;;;;;;;8.95;71.07;99602.88;7351807;19;20425;-59
2022/11/21 00:09:04;;;;;;;0.00;0.00;;;;;;;8.95;70.69;99589.84;7351027;19;20037;-58
2022/11/21 00:11:30;;;;;;;0.00;0.00;;;;;;;9.00;70.92;99597.50;7351440;19;22462;-58
2022/11/21 00:13:56;;;;;;;0.00;0.00;;;;;;;9.02;70.36;99600.91;7354575;19;20111;-58
2022/11/21 00:16:21;;;;;;;0.00;0.00;;;;;;;9.05;69.82;99591.22;7358483;19;20018;-59
2022/11/21 00:18:47;;;;;;;0.00;0.00;;;;;;;9.06;70.19;99574.69;7356322;19;20015;-57
2022/11/21 00:21:15;;;;;;;0.00;0.00;;;;;;;9.10;69.80;99568.50;7357427;19;20006;-59
2022/11/21 00:23:41;;;;;;;0.00;0.00;;;;;;;8.99;69.90;99536.78;7358926;19;20010;-59
2022/11/21 00:26:09;;;;;;;0.00;0.00;;;;;;;9.06;69.76;99533.03;7362499;19;20010;-59
2022/11/21 00:28:35;;;;;;;;;;;;;;;9.23;69.74;99555.06;7360627;19;20014;-58
2022/11/21 00:31:01;;;;;;;0.00;0.00;;;;;;;9.22;69.45;99542.91;7359161;19;19954;-59
2022/11/21 00:33:26;;;;;;;0.00;0.00;;;;;;;9.21;69.06;99528.19;7360526;19;21938;-58
2022/11/21 00:35:51;;;;;;;0.08;0.08;;;;;;;9.13;69.18;99504.19;7361799;19;20010;-58
2022/11/21 00:38:17;;;;;;;0.00;0.00;;;;;;;9.26;69.14;99510.66;7357851;19;20017;-59
2022/11/21 00:40:43;;;;;;;0.00;0.00;;;;;;;9.25;69.43;99501.13;7358121;19;20002;-59
2022/11/21 00:43:08;;;;;;;0.10;0.10;;;;;;;9.27;69.27;99488.88;7358382;19;20013;-59
2022/11/21 00:45:34;;;;;;;0.00;0.00;;;;;;;9.29;69.34;99482.75;7359005;19;20023;-58
2022/11/21 00:47:59;;;;;;;0.10;0.10;;;;;;;9.29;69.58;99466.25;7358452;19;20465;-59
2022/11/21 00:50:25;;;;;;;0.00;0.00;;;;;;;9.31;69.57;99451.41;7359063;19;20477;-57
2022/11/21 00:52:56;;;;;;;0.00;0.00;;;;;;;9.34;69.28;99453.91;7356871;19;20020;-59
2022/11/21 00:55:22;;;;;;;0.00;0.00;;;;;;;9.36;69.60;99446.88;7359798;19;20934;-59
2022/11/21 00:57:48;;;;;;;0.00;0.00;;;;;;;9.37;69.67;99448.56;7357682;19;20022;-58
2022/11/21 01:00:14;;;;;;;0.00;0.00;;;;;;;9.41;69.80;99444.09;7359394;19;20375;-59
2022/11/21 01:02:39;;;;;;;0.00;0.00;;;;;;;9.44;69.55;99438.78;7354147;19;20002;-58
2022/11/21 01:05:05;;;;;;;0.03;0.03;;;;;;;9.46;69.64;99419.56;7358873;19;20011;-59
2022/11/21 01:07:31;;;;;;;0.00;0.00;;;;;;;9.48;69.64;99403.84;7354598;19;20014;-59
2022/11/21 01:09:56;;;;;;;0.00;0.00;;;;;;;9.51;69.61;99402.00;7359573;19;20430;-58
2022/11/21 01:12:22;;;;;;;0.00;0.00;;;;;;;9.55;69.50;99393.16;7358743;19;20091;-58
2022/11/21 01:14:48;;;;;;;0.00;0.00;;;;;;;9.58;69.55;99377.41;7355858;19;20029;-59
2022/11/21 01:17:13;;;;;;;0.00;0.00;;;;;;;9.64;69.96;99378.06;7358284;19;20011;-58
2022/11/21 01:19:39;;;;;;;0.10;0.10;;;;;;;9.66;70.26;99358.84;7356662;19;20011;-59
2022/11/21 01:22:04;;;;;;;0.03;0.03;;;;;;;9.73;69.93;99341.19;7356654;19;20357;-59
2022/11/21 01:24:30;;;;;;;0.00;0.00;;;;;;;9.66;69.67;99313.69;7357345;19;20018;-58
2022/11/21 01:26:55;;;;;;;0.00;0.00;;;;;;;9.83;70.04;99335.56;7358532;19;20006;-59
2022/11/21 01:29:21;;;;;;;0.05;0.05;;;;;;;9.85;70.07;99322.44;7357697;19;20002;-57
2022/11/21 01:31:46;;;;;;;0.00;0.00;;;;;;;9.89;70.00;99316.19;7357491;19;20006;-59
2022/11/21 01:34:13;;;;;;;0.00;0.00;;;;;;;9.98;69.96;99321.00;7356585;19;20019;-58
2022/11/21 01:36:39;;;;;;;0.00;0.00;;;;;;;10.03;70.10;99312.97;7357910;19;20023;-59
2022/11/21 01:39:06;;;;;;;0.00;0.00;;;;;;;10.05;70.49;99306.81;7357194;19;20014;-58
2022/11/21 01:41:37;;;;;;;0.08;0.08;;;;;;;10.13;70.02;99290.81;7358754;19;20015;-58
2022/11/21 01:44:20;;;;;;;0.10;0.10;;;;;;;10.13;69.98;99272.53;7357496;19;20438;-59
2022/11/21 01:46:46;;;;;;;0.10;0.10;;;;;;;10.11;70.19;99270.00;7359557;19;20489;-59
2022/11/21 01:49:18;;;;;;;0.00;0.00;;;;;;;10.23;70.26;99252.13;7356205;19;20018;-58
2022/11/21 01:51:51;;;;;;;0.00;0.00;;;;;;;10.24;70.02;99246.00;7356634;19;20602;-58
2022/11/21 01:54:32;;;;;;;0.00;0.00;;;;;;;10.26;70.14;99237.22;7357376;19;20037;-59
2022/11/21 01:57:03;;;;;;;0.10;0.10;;;;;;;10.27;70.25;99227.63;7357388;19;20086;-58
2022/11/21 01:59:43;;;;;;;0.00;0.00;;;;;;;10.27;70.63;99235.44;7355596;19;20018;-57
2022/11/21 02:02:11;;;;;;;0.10;0.10;;;;;;;10.27;70.72;99225.03;7357890;19;20888;-57
2022/11/21 02:04:39;;;;;;;0.00;0.00;;;;;;;10.27;70.40;99207.59;7362063;19;20010;-59
2022/11/21 02:07:06;;;;;;;0.10;0.10;;;;;;;10.31;70.68;99203.09;7365004;19;20030;-58
2022/11/21 02:09:34;;;;;;;0.00;0.00;;;;;;;10.33;70.78;99185.59;7361115;19;20031;-59
2022/11/21 02:12:05;;;;;;;0.10;0.10;;;;;;;10.35;70.71;99173.34;7365839;19;20006;-59
2022/11/21 02:14:32;;;;;;;0.00;0.00;;;;;;;10.37;70.70;99158.44;7362931;19;20010;-59
2022/11/21 02:17:02;;;;;;;0.00;0.00;;;;;;;10.37;70.48;99140.19;7362851;19;20489;-58
2022/11/21 02:19:42;;;;;;;0.00;0.00;;;;;;;10.42;70.36;99132.16;7363918;19;20034;-58
2022/11/21 02:22:20;;;;;;;0.10;0.10;;;;;;;10.44;70.88;99122.47;7363560;19;20014;-58
2022/11/21 02:24:56;;;;;;;0.00;0.00;;;;;;;10.45;71.07;99116.34;7364671;19;20035;-59
2022/11/21 02:27:22;;;;;;;0.00;0.00;;;;;;;10.44;70.62;99110.28;7361510;19;20952;-57
2022/11/21 02:29:47;;;;;;;0.00;0.00;;;;;;;10.45;71.39;99106.75;7363414;19;22440;-58
2022/11/21 02:32:24;;;;;;;0.00;0.00;;;;;;;10.49;70.80;99108.31;7362704;19;20010;-59
2022/11/21 02:34:49;;;;;;;0.00;0.00;;;;;;;10.46;71.38;99102.38;7361473;19;20011;-59
2022/11/21 02:37:16;;;;;;;0.00;0.00;;;;;;;10.47;71.29;99091.84;7361930;19;20002;-59
2022/11/21 02:39:45;;;;;;;0.00;0.00;;;;;;;10.48;71.14;99082.25;7365511;19;20006;-59
2022/11/21 02:42:22;;;;;;;0.00;0.00;;;;;;;10.48;71.38;99077.03;7365105;19;21666;-58
2022/11/21 02:45:16;;;;;;;0.10;0.10;;;;;;;10.51;70.93;99072.53;7365569;19;20417;-58
2022/11/21 02:47:43;;;;;;;0.00;0.00;;;;;;;10.49;71.12;99065.69;7263264;19;2004281;-59
2022/11/21 02:50:15;;;;;;;0.00;0.00;;;;;;;10.48;71.14;99064.84;7364145;19;20835;-59
2022/11/21 02:52:41;;;;;;;0.00;0.00;;;;;;;10.36;70.85;99039.34;7366188;19;20042;-60
2022/11/21 02:55:07;;;;;;;0.10;0.10;;;;;;;10.49;70.97;99061.34;7362758;19;20010;-58
2022/11/21 02:57:33;;;;;;;0.00;0.00;;;;;;;10.51;70.99;99067.31;7361993;19;20006;-57
2022/11/21 02:59:58;;;;;;;0.10;0.10;;;;;;;10.41;71.07;99039.97;7359377;19;22144;-58
2022/11/21 03:02:24;;;;;;;0.00;0.00;;;;;;;10.54;71.19;99063.69;7362138;19;20053;-59
2022/11/21 03:04:49;;;;;;;0.00;0.00;;;;;;;10.55;71.18;99050.59;7365363;19;20049;-58
2022/11/21 03:07:15;;;;;;;0.00;0.00;;;;;;;10.56;71.50;99039.22;7361596;19;20046;-58
2022/11/21 03:09:40;;;;;;;0.00;0.00;;;;;;;10.59;71.26;99028.66;7365849;19;20631;-59
2022/11/21 03:12:07;;;;;;;0.05;0.05;;;;;;;10.58;71.76;99007.81;7363169;19;20027;-58
2022/11/21 03:14:33;;;;;;;0.00;0.00;;;;;;;10.62;71.46;99004.13;7362428;19;20113;-59
2022/11/21 03:16:59;;;;;;;0.10;0.10;;;;;;;10.64;71.26;98997.94;7362590;19;20013;-58
2022/11/21 03:19:24;;;;;;;0.05;0.05;;;;;;;10.65;71.23;98986.56;7362618;19;20011;-58
2022/11/21 03:21:49;;;;;;;0.00;0.00;;;;;;;10.56;71.33;98955.69;7362183;19;20336;-59
2022/11/21 03:24:15;;;;;;;0.03;0.03;;;;;;;10.67;71.50;98959.53;7364026;19;20014;-59
2022/11/21 03:26:40;;;;;;;0.00;0.00;;;;;;;10.67;70.96;98938.66;7358535;19;20072;-58
2022/11/21 03:29:06;;;;;;;0.10;0.10;;;;;;;10.73;71.60;98944.38;7362457;19;20029;-59
2022/11/21 03:31:31;;;;;;;0.00;0.00;;;;;;;10.74;71.29;98935.63;7361636;19;20027;-58
2022/11/21 03:33:57;;;;;;;0.00;0.00;;;;;;;10.76;71.38;98912.06;7363014;19;20514;-58
2022/11/21 03:36:22;;;;;;;0.00;0.00;;;;;;;10.79;71.36;98906.69;7362200;19;20026;-58
2022/11/21 03:38:47;;;;;;;0.00;0.00;;;;;;;10.79;71.35;98898.84;7362629;19;20033;-59
2022/11/21 03:41:28;;;;;;;0.00;0.00;;;;;;;10.82;71.37;98883.03;7362051;19;20014;-58
2022/11/21 03:44:08;;;;;;;0.10;0.10;;;;;;;10.87;70.88;98862.75;7362250;19;20016;-59
2022/11/21 03:46:36;;;;;;;0.00;0.00;;;;;;;10.78;71.66;98831.88;7362809;19;20018;-58
2022/11/21 03:49:02;;;;;;;0.00;0.00;;;;;;;10.89;71.11;98826.94;7360265;19;20014;-58
2022/11/21 03:51:28;;;;;;;0.10;0.10;;;;;;;10.90;71.82;98810.38;7362163;19;20014;-58
2022/11/21 03:53:54;;;;;;;0.00;0.00;;;;;;;10.92;71.81;98790.22;7360034;19;20013;-58
2022/11/21 03:56:20;;;;;;;0.00;0.00;;;;;;;10.96;72.02;98776.06;7359602;19;20966;-59
2022/11/21 03:58:45;;;;;;;0.10;0.10;;;;;;;10.95;71.63;98758.72;7359713;19;21148;-59
2022/11/21 04:01:14;;;;;;;0.00;0.00;;;;;;;10.91;71.72;98742.38;7359296;19;20323;-59
2022/11/21 04:03:41;;;;;;;0.10;0.10;;;;;;;11.08;71.54;98762.31;7352008;19;20006;-57
2022/11/21 04:06:07;;;;;;;0.03;0.03;;;;;;;11.07;71.75;98726.69;7361529;19;20026;-59
2022/11/21 04:08:33;;;;;;;0.10;0.10;;;;;;;11.11;71.78;98727.38;7361946;19;20029;-59
2022/11/21 04:10:58;;;;;;;0.08;0.08;;;;;;;11.21;71.69;98725.06;7360948;19;20015;-59
2022/11/21 04:13:23;;;;;;;0.03;0.03;;;;;;;11.25;72.03;98721.34;7362042;19;20006;-59
2022/11/21 04:15:49;;;;;;;0.10;0.10;;;;;;;11.29;71.72;98709.78;7360462;19;20014;-55
2022/11/21 04:18:15;;;;;;;0.00;0.00;;;;;;;11.34;71.69;98705.13;7362353;19;20011;-59
2022/11/21 04:20:40;;;;;;;0.10;0.10;;;;;;;11.37;71.83;98697.97;7354846;19;20815;-58
2022/11/21 04:23:06;;;;;;;0.10;0.10;;;;;;;11.42;71.91;98692.47;7362469;19;20616;-59
2022/11/21 04:25:32;;;;;;;0.10;0.10;;;;;;;11.48;72.18;98686.06;7358505;19;20014;-58
2022/11/21 04:27:58;;;;;;;0.00;0.00;;;;;;;11.53;71.80;98673.56;7362516;19;20022;-59
2022/11/21 04:30:24;;;;;;;0.00;0.00;;;;;;;11.59;72.00;98673.19;7360187;19;20642;-59
2022/11/21 04:32:50;;;;;;;0.00;0.00;;;;;;;11.65;71.44;98660.56;7363573;19;20014;-58
2022/11/21 04:35:16;;;;;;;0.00;0.00;;;;;;;11.61;71.59;98635.56;7363080;19;20046;-58
2022/11/21 04:37:41;;;;;;;0.00;0.00;;;;;;;11.76;71.46;98644.28;7363086;19;20453;-59
2022/11/21 04:40:07;;;;;;;0.08;0.08;;;;;;;11.81;71.50;98643.97;7361913;19;20021;-59
2022/11/21 04:42:32;;;;;;;0.00;0.00;;;;;;;11.88;71.33;98632.25;7363349;19;20798;-59
2022/11/21 04:44:58;;;;;;;0.00;0.00;;;;;;;11.92;70.97;98623.28;7359467;19;20010;-58
2022/11/21 04:47:23;;;;;;;0.00;0.00;;;;;;;11.98;70.92;98617.69;7362604;19;20014;-59
2022/11/21 04:49:48;;;;;;;0.10;0.10;;;;;;;12.02;70.57;98602.63;7361449;19;20579;-58
2022/11/21 04:52:14;;;;;;;0.00;0.00;;;;;;;12.06;70.33;98615.41;7363257;19;20014;-58
2022/11/21 04:54:39;;;;;;;0.10;0.10;;;;;;;12.12;70.76;98588.88;7362628;19;20030;-58
2022/11/21 04:57:04;;;;;;;0.00;0.00;;;;;;;12.16;70.61;98573.81;7361404;19;20779;-57
2022/11/21 04:59:30;;;;;;;0.00;0.00;;;;;;;12.18;70.50;98593.72;7363260;19;22124;-57
2022/11/21 05:01:55;;;;;;;0.00;0.00;;;;;;;12.25;70.37;98595.94;7362551;19;20007;-58
2022/11/21 05:04:21;;;;;;;0.10;0.10;;;;;;;12.24;71.12;98560.25;7359798;19;20356;-58
2022/11/21 05:06:46;;;;;;;0.00;0.00;;;;;;;12.20;70.60;98565.69;7361241;19;20011;-58
2022/11/21 05:09:11;;;;;;;0.10;0.10;;;;;;;12.16;70.87;98548.50;7362099;19;20725;-59
2022/11/21 05:14:24;;;;;;;0.00;0.00;;;;;;;12.03;71.19;98536.31;7362262;19;20853;-59
2022/11/21 05:16:50;;;;;;;0.10;0.10;;;;;;;11.95;71.75;98534.16;7357531;19;20010;-60
2022/11/21 05:19:15;;;;;;;0.10;0.10;;;;;;;11.88;72.18;98538.94;7361857;19;20430;-59
2022/11/21 05:21:41;;;;;;;0.10;0.10;;;;;;;11.83;71.34;98527.94;7361456;19;20018;-59
2022/11/21 05:24:06;;;;;;;0.05;0.05;;;;;;;11.75;71.63;98516.22;7360627;19;20017;-59
2022/11/21 05:26:32;;;;;;;0.00;0.00;;;;;;;11.72;72.30;98532.13;7360610;19;20013;-59
2022/11/21 05:28:57;;;;;;;0.10;0.10;;;;;;;11.60;72.43;98504.94;7360244;19;20379;-59
2022/11/21 05:31:23;;;;;;;0.10;0.10;;;;;;;11.61;73.01;98507.47;7352985;19;20010;-58
2022/11/21 05:33:48;;;;;;;0.05;0.05;;;;;;;11.48;72.57;98492.66;7362251;19;20475;-58
2022/11/21 05:36:13;;;;;;;0.00;0.00;;;;;;;11.49;72.41;98500.38;7359027;19;20007;-59
2022/11/21 05:38:39;;;;;;;0.03;0.03;;;;;;;11.41;72.41;98503.47;7363821;19;20021;-59
2022/11/21 05:41:04;;;;;;;0.00;0.00;;;;;;;11.36;72.71;98496.84;7365753;19;20481;-57
2022/11/21 05:43:44;;;;;;;0.00;0.00;;;;;;;11.30;72.97;98481.53;7368457;19;20111;-57
2022/11/21 05:46:11;;;;;;;0.00;0.00;;;;;;;11.23;73.21;98475.00;7366467;19;20011;-59
2022/11/21 05:48:37;;;;;;;0.00;0.00;;;;;;;11.17;73.03;98464.00;7367356;19;20553;-60
2022/11/21 05:51:03;;;;;;;0.00;0.00;;;;;;;11.10;73.70;98457.47;7368302;19;20010;-60
2022/11/21 05:53:29;;;;;;;0.00;0.00;;;;;;;11.08;73.85;98453.28;7364853;19;20018;-59
2022/11/21 05:55:54;;;;;;;0.05;0.05;;;;;;;11.06;73.65;98447.31;7367604;19;20014;-59
2022/11/21 05:58:20;;;;;;;0.00;0.00;;;;;;;11.03;73.96;98450.09;7367112;19;20022;-60
2022/11/21 06:00:45;;;;;;;0.00;0.00;;;;;;;11.01;74.46;98442.38;7364272;19;20684;-60
2022/11/21 06:03:26;;;;;;;0.10;0.10;;;;;;;11.01;73.59;98426.69;7367945;19;20017;-60
2022/11/21 06:06:04;;;;;;;0.00;0.00;;;;;;;10.97;74.51;98414.75;7367066;19;20402;-61
2022/11/21 06:08:33;;;;;;;0.00;0.00;;;;;;;10.97;74.39;98414.75;7366123;19;20092;-60
2022/11/21 06:10:59;;;;;;;0.00;0.00;;;;;;;10.97;74.22;98413.91;7367767;19;20011;-59
2022/11/21 06:13:25;;;;;;;0.00;0.00;;;;;;;10.96;74.65;98426.13;7366386;19;20075;-60
2022/11/21 06:16:21;;;;;;;0.00;0.00;;;;;;;10.94;74.33;98409.69;7367067;19;20766;-59
2022/11/21 06:18:51;;;;;;;0.00;0.00;;;;;;;10.93;74.83;98402.81;7263418;19;2004657;-60
2022/11/21 06:21:24;;;;;;;0.00;0.00;;;;;;;10.79;74.54;98363.63;7366434;19;20029;-60
2022/11/21 06:23:52;;;;;;;0.10;0.10;;;;;;;10.83;75.02;98367.75;7367224;19;20070;-60
2022/11/21 06:26:19;;;;;;;0.10;0.10;;;;;;;10.90;74.96;98392.56;7364382;19;20031;-58
2022/11/21 06:28:47;;;;;;;0.00;0.00;;;;;;;10.90;75.32;98369.91;7365443;19;20016;-60
2022/11/21 06:31:18;;;;;;;0.00;0.00;;;;;;;10.93;75.28;98370.63;7365730;19;20006;-60
2022/11/21 06:33:44;;;;;;;0.08;0.08;;;;;;;10.87;75.78;98350.97;7366479;19;20011;-59
2022/11/21 06:36:15;;;;;;;0.00;0.00;;;;;;;10.95;75.18;98359.19;7367383;19;20002;-60
2022/11/21 06:38:41;;;;;;;0.00;0.00;;;;;;;10.94;75.77;98354.88;7366062;19;20002;-59
2022/11/21 06:41:10;;;;;;;0.10;0.10;;;;;;;10.83;75.53;98344.25;7363142;19;22296;-60
2022/11/21 06:43:36;;;;;;;0.05;0.05;;;;;;;10.94;75.32;98354.88;7367296;19;20018;-58
2022/11/21 06:46:02;;;;;;;0.00;0.00;;;;;;;10.94;75.93;98348.81;7367235;19;20090;-60
2022/11/21 06:48:32;;;;;;;0.10;0.10;;;;;;;10.91;75.65;98342.84;7365304;19;20010;-59
2022/11/21 06:50:57;;;;;;;0.00;0.00;;;;;;;10.91;75.81;98337.63;7365896;19;20462;-60
2022/11/21 06:53:23;;;;;;;0.00;0.00;;;;;;;10.90;75.90;98335.97;7364393;19;20010;-58
2022/11/21 06:55:49;;;;;;;0.00;0.00;;;;;;;10.89;75.74;98333.44;7366510;19;20010;-59
2022/11/21 06:58:14;;;;;;;0.10;0.10;;;;;;;10.87;75.99;98332.69;7355656;19;19998;-60
2022/11/21 07:00:39;;;;;;;0.00;0.00;;;;;;;10.85;75.89;98316.28;7362478;19;20007;-60
2022/11/21 07:03:05;;;;;;;0.00;0.00;;;;;;;10.86;75.80;98312.75;7364172;19;20022;-61
2022/11/21 07:05:31;;;;;;;0.00;0.00;;;;;;;10.83;76.00;98312.94;7361797;19;20011;-59
2022/11/21 07:08:01;;;;;;;0.00;0.00;;;;;;;10.84;76.20;98289.31;7363427;19;20399;-60
2022/11/21 07:10:27;;;;;;;0.03;0.03;;;;;;;10.82;75.81;98282.53;7364095;19;20002;-59
2022/11/21 07:15:42;;;;;;;0.00;0.00;;;;;;;10.77;76.00;98279.38;7361334;19;20033;-60
2022/11/21 07:18:07;;;;;;;0.00;0.00;;;;;;;10.75;75.89;98273.41;7358193;19;20137;-61
2022/11/21 07:20:32;;;;;;;0.00;0.00;;;;;;;10.71;75.97;98264.09;7356060;19;20002;-60
2022/11/21 07:22:58;;;;;;;0.00;0.00;;;;;;;10.68;75.98;98256.44;7360090;19;20362;-60
2022/11/21 07:25:23;;;;;;;0.00;0.00;;;;;;;10.64;76.30;98247.97;7363581;19;20014;-60
2022/11/21 07:27:49;;;;;;;0.10;0.10;;;;;;;10.60;76.66;98231.69;7362371;19;20014;-60
2022/11/21 07:30:14;;;;;;;0.00;0.00;;;;;;;10.47;76.37;98211.66;7363988;19;20010;-61
2022/11/21 07:32:40;;;;;;;0.10;0.10;;;;;;;10.55;77.10;98228.50;7363164;19;20011;-60
2022/11/21 07:35:06;;;;;;;0.10;0.10;;;;;;;10.55;77.37;98231.13;7361338;19;20010;-60
2022/11/21 07:37:31;;;;;;;0.10;0.10;;;;;;;10.55;77.03;98215.47;7362305;19;20010;-61
2022/11/21 07:39:57;;;;;;;0.00;0.00;;;;;;;10.53;77.14;98212.09;7365347;19;20461;-57
2022/11/21 07:42:22;;;;;;;0.10;0.10;;;;;;;10.60;77.45;98218.63;7364283;19;20007;-61
2022/11/21 07:44:48;;;;;;;0.08;0.08;;;;;;;10.63;77.79;98228.03;7362019;19;20002;-60
2022/11/21 07:47:13;;;;;;;0.00;0.00;;;;;;;10.67;77.50;98218.25;7365342;19;20010;-61
2022/11/21 07:49:38;;;;;;;0.00;0.00;;;;;;;10.68;78.00;98222.50;7352382;19;20021;-60
2022/11/21 07:52:04;;;;;;;0.10;0.10;;;;;;;10.69;77.61;98211.13;7359046;19;20599;-60
2022/11/21 07:54:29;;;;;;;0.00;0.00;;;;;;;10.68;77.41;98204.25;7359431;19;20038;-59
2022/11/21 07:56:54;;;;;;;0.00;0.00;;;;;;;10.72;77.49;98195.28;7362153;19;20006;-60
2022/11/21 07:59:20;;;;;;;0.10;0.10;;;;;;;10.71;77.79;98198.84;7361264;19;20010;-59
2022/11/21 08:01:45;;;;;;;0.00;0.00;;;;;;;10.71;77.81;98188.41;7359946;19;20014;-60
2022/11/21 08:04:11;;;;;;;0.10;0.10;;;;;;;10.70;77.67;98171.06;7364737;19;20010;-59
2022/11/21 08:06:36;;;;;;;0.10;0.10;;;;;;;10.69;77.42;98183.25;7365051;19;20595;-60
2022/11/21 08:09:02;;;;;;;0.00;0.00;;;;;;;10.65;77.66;98160.94;7364801;19;20022;-60
2022/11/21 08:11:27;;;;;;;0.00;0.00;;;;;;;10.64;77.42;98157.47;7365323;19;20031;-59
2022/11/21 08:13:53;;;;;;;0.10;0.10;;;;;;;10.28;77.29;98102.38;7364226;19;20027;-59
2022/11/21 08:16:18;;;;;;;0.00;0.00;;;;;;;10.59;77.50;98154.31;7362671;19;20018;-59
2022/11/21 08:18:43;;;;;;;0.00;0.00;;;;;;;10.56;77.81;98159.72;7364764;19;20022;-60
2022/11/21 08:21:09;;;;;;;0.10;0.10;;;;;;;10.56;77.58;98146.69;7362704;19;20014;-59
2022/11/21 08:23:34;;;;;;;0.10;0.10;;;;;;;10.55;77.85;98137.19;7364001;19;20026;-60
2022/11/21 08:26:00;;;;;;;0.05;0.05;;;;;;;10.55;78.05;98124.13;7363776;19;20018;-59
2022/11/21 08:28:25;;;;;;;0.00;0.00;;;;;;;10.49;77.92;98121.91;7363381;19;20030;-60
2022/11/21 08:30:51;;;;;;;0.10;0.10;;;;;;;10.55;78.18;98111.09;7364082;19;20462;-59
2022/11/21 08:33:16;;;;;;;0.10;0.10;;;;;;;10.56;78.35;98104.94;7362240;19;20150;-59
2022/11/21 08:35:41;;;;;;;0.10;0.10;;;;;;;10.57;77.90;98098.75;7361794;19;20024;-60
2022/11/21 08:38:07;;;;;;;0.10;0.10;;;;;;;10.53;78.06;98099.91;7359245;19;20010;-60
2022/11/21 08:40:34;;;;;;;0.00;0.00;;;;;;;10.58;78.32;98095.22;7361816;19;20014;-58
2022/11/21 08:43:04;;;;;;;0.00;0.00;;;;;;;10.61;78.05;98100.25;7359926;19;20026;-58
2022/11/21 08:45:31;;;;;;;0.05;0.05;;;;;;;10.60;78.01;98093.38;7364939;19;21402;-59
2022/11/21 08:47:56;;;;;;;0.00;0.00;;;;;;;10.63;78.11;98087.94;7363205;19;20014;-57
2022/11/21 08:50:22;;;;;;;0.00;0.00;;;;;;;10.64;78.16;98073.97;7357360;19;21239;-59
2022/11/21 08:52:48;;;;;;;0.10;0.10;;;;;;;10.65;78.25;98075.63;7365083;19;20881;-59
2022/11/21 08:55:13;;;;;;;0.10;0.10;;;;;;;10.60;78.41;98058.59;7364692;19;20149;-59
2022/11/21 08:57:40;;;;;;;0.00;0.00;;;;;;;10.69;78.49;98049.31;7364609;19;20069;-59
2022/11/21 09:00:08;;;;;;;0.00;0.00;;;;;;;10.71;78.48;98043.06;7363807;19;20026;-57
2022/11/21 09:02:33;;;;;;;;;;;;;;;10.74;78.05;98039.41;7363453;19;20014;-58
2022/11/21 09:04:59;;;;;;;0.00;0.00;;;;;;;10.69;77.89;98031.88;7363722;19;19938;-59
2022/11/21 09:07:24;;;;;;;0.10;0.10;;;;;;;10.70;78.00;98030.13;7363792;19;20014;-57
2022/11/21 09:09:50;;;;;;;0.00;0.00;;;;;;;10.71;78.01;98010.91;7362743;19;20023;-56
2022/11/21 09:12:15;;;;;;;0.10;0.10;;;;;;;10.71;77.90;98008.31;7363134;19;20011;-59
2022/11/21 09:20:09;;;;;;;0.10;0.10;;;;;;;10.61;78.59;97985.44;7370320;19;20915;-59
2022/11/21 09:22:35;;;;;;;0.00;0.00;;;;;;;10.72;78.16;97991.72;7370170;19;20022;-59
2022/11/21 09:25:00;;;;;;;0.00;0.00;;;;;;;10.73;78.71;97988.16;7370761;19;20011;-60
2022/11/21 09:27:25;;;;;;;0.10;0.10;;;;;;;10.72;78.66;97986.50;7368677;19;20038;-59
2022/11/21 09:29:51;;;;;;;0.00;0.00;;;;;;;10.73;78.20;97982.94;7369677;19;20011;-59
2022/11/21 09:32:16;;;;;;;0.00;0.00;;;;;;;10.75;78.47;97975.84;7368760;19;20006;-59
2022/11/21 09:34:42;;;;;;;0.00;0.00;;;;;;;10.76;78.18;97967.91;7369103;19;20402;-59
2022/11/21 09:37:07;;;;;;;0.05;0.05;;;;;;;10.77;78.60;97969.56;7369817;19;20668;-59
2022/11/21 09:39:33;;;;;;;0.00;0.00;;;;;;;10.78;78.48;97954.75;7368602;19;20014;-58
2022/11/21 09:42:23;;;;;;;0.10;0.10;;;;;;;10.82;78.36;97956.22;7368941;19;20006;-59
2022/11/21 09:45:13;;;;;;;0.00;0.00;;;;;;;10.82;78.61;97974.50;7268201;19;2004559;-59
2022/11/21 09:47:46;;;;;;;0.00;0.00;;;;;;;10.83;78.14;97958.72;7267137;19;2004624;-60
2022/11/21 09:50:11;;;;;;;0.10;0.10;;;;;;;10.81;78.61;97954.56;7368012;19;20006;-59
2022/11/21 09:52:43;;;;;;;0.00;0.00;;;;;;;10.71;78.73;97946.50;7368738;19;20232;-61
2022/11/21 09:55:36;;;;;;;0.00;0.00;;;;;;;10.84;78.64;97954.31;7369533;19;20006;-59
2022/11/21 09:58:04;;;;;;;0.08;0.08;;;;;;;10.83;78.81;97960.50;7266558;19;2004524;-61
2022/11/21 10:00:30;;;;;;;0.00;0.00;;;;;;;10.77;78.60;97966.97;7368575;19;20486;-59
2022/11/21 10:02:56;;;;;;;0.00;0.00;;;;;;;10.83;78.58;97942.22;7369649;19;20010;-60
2022/11/21 10:05:50;;;;;;;0.10;0.10;;;;;;;10.85;78.67;97950.81;7368693;19;20007;-59
2022/11/21 10:08:43;;;;;;;0.00;0.00;;;;;;;10.85;78.67;97961.25;7267727;19;2004307;-61
2022/11/21 10:11:20;;;;;;;0.00;0.00;;;;;;;10.85;78.89;97956.03;7266514;19;2004609;-60
2022/11/21 10:13:57;;;;;;;0.00;0.00;;;;;;;10.85;78.66;97956.84;7368668;19;20007;-62
2022/11/21 10:16:47;;;;;;;0.10;0.10;;;;;;;10.84;79.25;97949.09;7368849;19;20006;-62
2022/11/21 10:19:19;;;;;;;0.00;0.00;;;;;;;10.87;78.86;97948.91;7367784;19;20017;-62
2022/11/21 10:21:50;;;;;;;0.00;0.00;;;;;;;10.83;78.89;97942.22;7367832;19;20002;-61
2022/11/21 10:24:54;;;;;;;0.10;0.10;;;;;;;10.85;78.63;97971.69;7367217;19;20412;-61
2022/11/21 10:27:54;;;;;;;0.10;0.10;;;;;;;10.79;77.27;97961.63;7263428;19;2004276;-60
2022/11/21 10:30:21;;;;;;;0.10;0.10;;;;;;;10.59;77.03;97971.66;7264065;19;2004488;-59
2022/11/21 10:33:00;;;;;;;0.00;0.00;;;;;;;10.61;76.69;97977.59;7367616;19;20030;-60
2022/11/21 10:35:47;;;;;;;0.00;0.00;;;;;;;10.50;75.78;97976.66;7366515;19;20006;-60
2022/11/21 10:38:13;;;;;;;;;;;;;;;10.36;74.96;97969.72;7369359;19;20011;-60
2022/11/21 10:40:46;;;;;;;0.00;0.00;;;;;;;10.22;75.92;97972.34;7367476;19;19934;-60
2022/11/21 10:46:20;;;;;;;0.00;0.00;;;;;;;9.90;76.28;97979.63;7263937;19;2004515;-59
2022/11/21 10:49:00;;;;;;;0.00;0.00;;;;;;;9.79;76.27;97980.31;7368782;19;20006;-59
2022/11/21 10:51:46;;;;;;;0.00;0.00;;;;;;;9.67;76.09;97991.50;7366602;19;20010;-58
2022/11/21 10:54:31;;;;;;;0.00;0.00;;;;;;;9.57;76.28;97992.06;7367983;19;20484;-60
2022/11/21 10:57:13;;;;;;;0.05;0.05;;;;;;;9.48;76.85;97994.38;7366445;19;20014;-59
2022/11/21 10:59:38;;;;;;;0.00;0.00;;;;;;;9.39;76.86;98013.22;7365816;19;20085;-60
2022/11/21 11:02:13;;;;;;;0.10;0.10;;;;;;;9.33;77.15;98004.84;7366815;19;20845;-60
2022/11/21 11:04:38;;;;;;;0.00;0.00;;;;;;;9.20;77.94;97997.84;7366356;19;20006;-60
2022/11/21 11:07:24;;;;;;;0.00;0.00;;;;;;;9.23;77.46;98013.31;7367009;19;20034;-59
2022/11/21 11:09:51;;;;;;;0.10;0.10;;;;;;;9.17;78.05;98013.66;7365039;19;20011;-59
2022/11/21 11:15:17;;;;;;;0.00;0.00;;;;;;;9.07;77.97;98009.00;7367940;19;20034;-59
2022/11/21 11:17:49;;;;;;;0.10;0.10;;;;;;;9.02;78.18;98013.66;7366235;19;20014;-59
2022/11/21 11:20:28;;;;;;;0.00;0.00;;;;;;;9.06;78.41;98028.13;7366436;19;20014;-59
2022/11/21 11:22:54;;;;;;;0.10;0.10;;;;;;;9.03;78.33;98054.38;7367644;19;20027;-58
2022/11/21 11:25:21;;;;;;;0.00;0.00;;;;;;;9.01;78.37;98055.38;7368960;19;23044;-60
2022/11/21 11:27:46;;;;;;;0.00;0.00;;;;;;;8.98;78.91;98063.38;7365229;19;20007;-59
2022/11/21 11:30:15;;;;;;;0.00;0.00;;;;;;;8.98;78.76;98077.22;7368066;19;23961;-59
2022/11/21 11:32:41;;;;;;;0.10;0.10;;;;;;;8.95;78.45;98072.19;7364529;19;20126;-59
2022/11/21 11:35:21;;;;;;;0.00;0.00;;;;;;;8.95;78.83;98066.97;7368247;19;21114;-60
2022/11/21 11:38:00;;;;;;;0.03;0.03;;;;;;;8.94;78.78;98069.69;7363311;19;20006;-60
2022/11/21 11:40:36;;;;;;;0.00;0.00;;;;;;;8.94;78.88;98059.28;7367263;19;20010;-59
2022/11/21 11:49:04;;;;;;;0.10;0.10;;;;;;;8.91;79.15;98055.06;7263111;19;2004282;-59
2022/11/21 11:51:36;;;;;;;0.00;0.00;;;;;;;8.84;79.41;98038.97;7366002;19;20090;-59
2022/11/21 11:54:11;;;;;;;0.10;0.10;;;;;;;8.93;79.05;98042.81;7366478;19;20006;-60
2022/11/21 11:56:37;;;;;;;0.00;0.00;;;;;;;8.91;79.40;98034.25;7365047;19;20118;-60
2022/11/21 11:59:20;;;;;;;0.10;0.10;;;;;;;8.95;79.21;98024.50;7363465;19;20023;-58
2022/11/21 12:01:49;;;;;;;0.00;0.00;;;;;;;8.96;79.18;98016.59;7360849;19;20179;-60
2022/11/21 12:04:20;;;;;;;0.00;0.00;;;;;;;8.90;79.84;97997.91;7366195;19;20022;-59
2022/11/21 12:06:59;;;;;;;0.08;0.08;;;;;;;8.95;79.65;98004.53;7364823;19;20027;-60